Austin, Texas
Traffic Map
Current Weather Conditions
Austin, Texas
Broken Clouds Haze
Broken Clouds
25°
Feels Like: 26°
Wind Chill: 25° Ceiling: 8500
Heat Index: 26° Visibility: 4mi
Dew Point: 24° Wind: 0mph
Humidity: 94% Direction: ° ()
Pressure: 30.07in Gusts: 0mph
Raw Report DataKATT 241451Z AUTO 00000KT 4SM BR SCT003 BKN085 25/24 A3007 RMK AO2 RAE26B31E41 SLP169 P0001 60009 T02500239 50005
Traffic Incident Summary
Active as of:
Severity:
Category:
InformationThere was an issue retrieving the traffic information for this location. Please try a different location or try again shortly.
Advertisements
Track Severe Weather on mobile